Time;durP1;ratioP1;P1;durP2;ratioP2;P2;SDS_P1;SDS_P2;PMS_P1;PMS_P2;Temp;Humidity;BMP_temperature;BMP_pressure;BME280_temperature;BME280_humidity;BME280_pressure;Samples;Min_cycle;Max_cycle;Signal;HPM_P1;HPM_P2
2023/10/31 00:01:07;;;;;;;0.30;0.10;;;12.20;99.90;;;;;;5113708;28;20480;-51
2023/10/31 00:03:34;;;;;;;0.30;0.10;;;12.30;99.90;;;;;;5114035;28;20427;-54
2023/10/31 00:06:01;;;;;;;0.40;0.10;;;12.20;99.90;;;;;;5113766;28;20415;-55
2023/10/31 00:08:29;;;;;;;0.30;0.10;;;12.30;99.90;;;;;;5114203;28;20544;-55
2023/10/31 00:10:56;;;;;;;0.40;0.10;;;12.40;99.90;;;;;;5113615;28;20732;-55
2023/10/31 00:13:23;;;;;;;0.40;0.10;;;12.30;99.90;;;;;;5113756;28;20488;-55
2023/10/31 00:15:50;;;;;;;0.30;0.10;;;12.20;99.90;;;;;;5113950;28;20492;-54
2023/10/31 00:21:39;;;;;;;1.30;0.10;;;12.40;99.90;;;;;;5113804;28;20467;-55
2023/10/31 00:24:08;;;;;;;0.60;0.10;;;12.30;99.90;;;;;;5113422;28;20417;-56
2023/10/31 00:26:35;;;;;;;0.30;0.10;;;12.30;99.90;;;;;;5113507;28;20416;-56
2023/10/31 00:29:02;;;;;;;0.30;0.10;;;12.30;99.90;;;;;;5113955;28;20420;-56
2023/10/31 00:31:29;;;;;;;0.30;0.10;;;12.40;99.90;;;;;;5114226;28;20439;-53
2023/10/31 00:33:57;;;;;;;0.30;0.10;;;12.50;99.90;;;;;;5117187;28;20427;-56
2023/10/31 00:36:24;;;;;;;0.50;0.10;;;12.50;99.90;;;;;;5117301;28;20481;-54
2023/10/31 00:38:51;;;;;;;0.40;0.10;;;12.60;99.90;;;;;;5117138;28;20412;-55
2023/10/31 00:41:19;;;;;;;0.30;0.10;;;12.50;99.90;;;;;;5117277;28;20461;-56
2023/10/31 00:43:46;;;;;;;0.30;0.10;;;12.70;99.90;;;;;;5117077;28;20781;-56
2023/10/31 00:46:13;;;;;;;0.30;0.10;;;12.70;99.90;;;;;;5117105;27;20493;-57
2023/10/31 00:48:40;;;;;;;0.30;0.10;;;12.70;99.90;;;;;;5117118;28;20424;-56
2023/10/31 00:51:07;;;;;;;0.30;0.10;;;12.80;99.90;;;;;;5117062;28;20669;-58
2023/10/31 00:53:34;;;;;;;0.30;0.10;;;12.60;99.90;;;;;;5117885;27;20420;-58
2023/10/31 00:56:02;;;;;;;0.32;0.10;;;12.70;99.90;;;;;;5117328;28;20420;-58
2023/10/31 00:58:30;;;;;;;0.30;0.10;;;12.70;99.90;;;;;;5115791;28;20416;-59
2023/10/31 01:04:20;;;;;;;0.30;0.10;;;12.50;99.90;;;;;;5116559;28;20430;-59
2023/10/31 01:06:47;;;;;;;0.30;0.10;;;12.60;99.90;;;;;;5116842;28;20458;-60
2023/10/31 01:09:14;;;;;;;0.50;0.10;;;12.60;99.90;;;;;;5117265;28;20757;-60
2023/10/31 01:11:41;;;;;;;0.30;0.10;;;12.60;99.90;;;;;;5117167;28;20428;-60
2023/10/31 01:14:09;;;;;;;0.30;0.10;;;12.50;99.90;;;;;;5116939;28;20481;-60
2023/10/31 01:16:36;;;;;;;0.30;0.10;;;12.50;99.90;;;;;;5116236;28;20427;-60
2023/10/31 01:19:03;;;;;;;0.40;0.10;;;12.40;99.90;;;;;;5116642;28;20682;-60
2023/10/31 01:21:30;;;;;;;0.40;0.10;;;12.40;99.90;;;;;;5116865;28;20424;-60
2023/10/31 01:23:57;;;;;;;0.43;0.10;;;12.40;99.90;;;;;;5116918;28;20424;-60
2023/10/31 01:26:24;;;;;;;0.30;0.10;;;12.50;99.90;;;;;;5116485;28;20770;-59
2023/10/31 01:28:51;;;;;;;0.30;0.10;;;12.50;99.90;;;;;;5116943;28;20428;-60
2023/10/31 01:31:20;;;;;;;0.30;0.10;;;12.50;99.90;;;;;;5116397;28;20431;-61
2023/10/31 01:33:47;;;;;;;0.30;0.10;;;12.40;99.90;;;;;;5116750;28;20481;-60
2023/10/31 01:36:14;;;;;;;0.30;0.10;;;12.40;99.90;;;;;;5116443;28;20719;-60
2023/10/31 01:38:41;;;;;;;0.30;0.10;;;12.30;99.90;;;;;;5116153;28;20887;-60
2023/10/31 01:41:08;;;;;;;0.30;0.10;;;12.30;99.90;;;;;;5116389;28;20912;-60
2023/10/31 01:43:37;;;;;;;0.30;0.10;;;12.20;99.90;;;;;;5115223;28;20427;-60
2023/10/31 01:46:04;;;;;;;0.30;0.10;;;12.10;99.90;;;;;;5115952;28;20912;-59
2023/10/31 01:48:34;;;;;;;0.50;0.10;;;12.00;99.90;;;;;;5116586;28;20431;-59
2023/10/31 01:51:04;;;;;;;1.10;0.10;;;12.10;99.90;;;;;;5116884;28;20435;-60
2023/10/31 01:53:33;;;;;;;0.40;0.10;;;12.10;99.90;;;;;;5116653;28;20466;-59
2023/10/31 01:56:02;;;;;;;0.30;0.10;;;12.10;99.90;;;;;;5115875;28;20909;-59
2023/10/31 01:58:32;;;;;;;0.90;0.10;;;12.10;99.90;;;;;;5115934;28;20416;-59
2023/10/31 02:01:00;;;;;;;0.40;0.10;;;12.10;99.90;;;;;;5115715;28;20420;-59
2023/10/31 02:03:27;;;;;;;0.40;0.10;;;12.00;99.90;;;;;;5116070;28;20424;-59
2023/10/31 02:05:56;;;;;;;0.40;0.10;;;11.80;99.90;;;;;;5116513;28;20785;-59
2023/10/31 02:08:23;;;;;;;0.40;0.10;;;11.70;99.90;;;;;;5115720;28;20827;-59
2023/10/31 02:10:50;;;;;;;0.40;0.10;;;11.60;99.90;;;;;;5112688;28;20431;-59
2023/10/31 02:13:18;;;;;;;0.50;0.20;;;11.60;99.90;;;;;;5113362;28;20420;-59
2023/10/31 02:15:46;;;;;;;1.30;0.10;;;11.60;99.90;;;;;;5113381;28;20423;-59
2023/10/31 02:18:13;;;;;;;0.40;0.20;;;11.50;99.90;;;;;;5114716;28;20473;-59
2023/10/31 02:20:40;;;;;;;0.30;0.10;;;11.40;99.90;;;;;;5115320;28;20477;-60
2023/10/31 02:23:09;;;;;;;0.30;0.10;;;11.40;99.90;;;;;;5115880;28;20870;-59
2023/10/31 02:25:36;;;;;;;0.30;0.10;;;11.30;99.90;;;;;;5115798;28;20456;-59
2023/10/31 02:28:03;;;;;;;0.30;0.10;;;11.30;99.90;;;;;;5115883;28;20424;-59
2023/10/31 02:30:30;;;;;;;0.40;0.10;;;11.20;99.90;;;;;;5114273;28;20428;-59
2023/10/31 02:32:57;;;;;;;0.30;0.10;;;11.20;99.90;;;;;;5114443;28;20850;-59
2023/10/31 02:35:24;;;;;;;1.00;0.20;;;11.10;99.90;;;;;;5113877;28;20440;-60
2023/10/31 02:37:53;;;;;;;0.30;0.15;;;11.10;99.90;;;;;;5115509;28;20572;-59
2023/10/31 02:40:21;;;;;;;0.63;0.10;;;11.20;99.90;;;;;;5115349;28;20488;-59
2023/10/31 02:42:48;;;;;;;0.40;0.20;;;11.20;99.90;;;;;;5115124;28;20477;-59
2023/10/31 02:45:15;;;;;;;0.30;0.10;;;11.20;99.90;;;;;;5115552;28;20843;-60
2023/10/31 02:47:42;;;;;;;0.30;0.10;;;11.20;99.90;;;;;;5115884;28;20416;-60
2023/10/31 02:50:10;;;;;;;0.30;0.10;;;11.40;99.90;;;;;;5116216;28;20424;-59
2023/10/31 02:52:37;;;;;;;0.80;0.10;;;11.40;99.90;;;;;;5115527;28;20489;-60
2023/10/31 02:55:04;;;;;;;0.30;0.10;;;11.40;99.90;;;;;;5114959;28;20420;-60
2023/10/31 02:57:33;;;;;;;0.40;0.10;;;11.40;99.90;;;;;;5115615;28;20477;-60
2023/10/31 03:00:00;;;;;;;0.70;0.10;;;11.40;99.90;;;;;;5114754;28;20424;-61
2023/10/31 03:02:26;;;;;;;0.40;0.10;;;11.40;99.90;;;;;;5114880;28;20437;-60
2023/10/31 03:04:53;;;;;;;0.90;0.10;;;11.50;99.90;;;;;;5115918;28;20420;-60
2023/10/31 03:07:21;;;;;;;0.40;0.20;;;11.50;99.90;;;;;;5115961;28;20420;-60
2023/10/31 03:09:48;;;;;;;0.40;0.10;;;11.50;99.90;;;;;;5114703;28;20423;-59
2023/10/31 03:12:15;;;;;;;0.30;0.10;;;11.40;99.90;;;;;;5114046;28;20432;-60
2023/10/31 03:14:44;;;;;;;0.30;0.10;;;11.40;99.90;;;;;;5114298;28;20747;-60
2023/10/31 03:17:11;;;;;;;0.35;0.10;;;11.40;99.90;;;;;;5114543;28;20424;-60
2023/10/31 03:19:38;;;;;;;0.40;0.10;;;11.40;99.90;;;;;;5113043;28;20523;-60
2023/10/31 03:22:06;;;;;;;0.80;0.20;;;11.40;99.90;;;;;;5113198;28;20423;-59
2023/10/31 03:24:33;;;;;;;0.40;0.10;;;11.30;99.90;;;;;;5113405;28;20424;-60
2023/10/31 03:27:00;;;;;;;0.40;0.20;;;11.30;99.90;;;;;;5113047;28;20416;-59
2023/10/31 03:29:27;;;;;;;0.80;0.10;;;11.20;99.90;;;;;;5113566;28;20409;-59
2023/10/31 03:31:55;;;;;;;1.00;0.20;;;11.20;99.90;;;;;;5113021;28;20432;-59
2023/10/31 03:34:22;;;;;;;0.40;0.10;;;11.20;99.90;;;;;;5113606;28;20420;-59
2023/10/31 03:36:49;;;;;;;0.32;0.10;;;11.10;99.90;;;;;;5114131;28;20419;-60
2023/10/31 03:39:16;;;;;;;0.40;0.20;;;11.10;99.90;;;;;;5114044;28;20427;-60
2023/10/31 03:41:43;;;;;;;0.50;0.20;;;11.10;99.90;;;;;;5113475;28;20404;-60
2023/10/31 03:44:11;;;;;;;0.30;0.10;;;11.00;99.90;;;;;;5114647;28;20878;-60
2023/10/31 03:46:38;;;;;;;0.80;0.20;;;11.00;99.90;;;;;;5114983;28;20739;-60
2023/10/31 03:49:07;;;;;;;0.50;0.20;;;11.00;99.90;;;;;;5114386;28;20473;-60
2023/10/31 03:51:34;;;;;;;0.32;0.20;;;11.00;99.90;;;;;;5112965;28;20428;-60
2023/10/31 03:54:01;;;;;;;0.40;0.10;;;11.10;99.90;;;;;;5113808;28;20481;-60
2023/10/31 03:56:28;;;;;;;0.30;0.10;;;11.10;99.90;;;;;;5113899;28;20469;-59
2023/10/31 03:58:55;;;;;;;0.32;0.20;;;11.10;99.90;;;;;;5115445;28;20424;-60
2023/10/31 04:01:22;;;;;;;0.40;0.20;;;11.10;99.90;;;;;;5114982;28;20416;-60
2023/10/31 04:03:49;;;;;;;0.40;0.20;;;11.10;99.90;;;;;;5114639;28;20420;-60
2023/10/31 04:06:17;;;;;;;0.50;0.10;;;11.10;99.90;;;;;;5114508;28;20477;-59
2023/10/31 04:08:44;;;;;;;0.30;0.10;;;11.10;99.90;;;;;;5118016;28;20416;-60
2023/10/31 04:11:11;;;;;;;0.40;0.20;;;11.00;99.90;;;;;;5118775;28;20462;-60
2023/10/31 04:13:38;;;;;;;0.80;0.20;;;11.00;99.90;;;;;;5118595;28;20432;-60
2023/10/31 04:16:06;;;;;;;0.40;0.20;;;10.90;99.90;;;;;;5117604;28;20423;-60
2023/10/31 04:18:33;;;;;;;0.30;0.10;;;10.90;99.90;;;;;;5117731;28;20427;-59
2023/10/31 04:20:59;;;;;;;0.32;0.10;;;10.90;99.90;;;;;;5118056;28;20465;-59
2023/10/31 04:23:28;;;;;;;0.68;0.20;;;10.90;99.90;;;;;;5118077;28;20461;-60
2023/10/31 04:25:55;;;;;;;0.30;0.20;;;10.90;99.90;;;;;;5117352;28;20424;-60
2023/10/31 04:28:22;;;;;;;0.40;0.20;;;10.90;99.90;;;;;;5117415;28;20427;-59
2023/10/31 04:30:49;;;;;;;0.40;0.20;;;10.80;99.90;;;;;;5117646;28;20432;-60
2023/10/31 04:33:16;;;;;;;1.20;0.13;;;10.80;99.90;;;;;;5117317;28;20828;-60
2023/10/31 04:35:43;;;;;;;0.40;0.20;;;10.80;99.90;;;;;;5117334;28;20473;-60
2023/10/31 04:38:10;;;;;;;0.40;0.13;;;10.80;99.90;;;;;;5117353;28;20901;-60
2023/10/31 04:40:38;;;;;;;0.40;0.20;;;10.80;99.90;;;;;;5117706;28;20477;-60
2023/10/31 04:43:05;;;;;;;0.80;0.20;;;10.80;99.90;;;;;;5116117;28;20785;-60
2023/10/31 04:45:32;;;;;;;0.40;0.15;;;10.70;99.90;;;;;;5115527;28;20420;-60
2023/10/31 04:47:59;;;;;;;0.70;0.20;;;10.70;99.90;;;;;;5116251;28;20493;-60
2023/10/31 04:50:26;;;;;;;0.40;0.20;;;10.60;99.90;;;;;;5116516;28;20452;-60
2023/10/31 04:52:53;;;;;;;0.80;0.20;;;10.50;99.90;;;;;;5116035;28;20489;-60
2023/10/31 04:55:20;;;;;;;0.40;0.20;;;10.60;99.90;;;;;;5115929;28;20424;-59
2023/10/31 04:57:48;;;;;;;0.43;0.20;;;10.60;99.90;;;;;;5116586;28;20424;-59
2023/10/31 05:00:16;;;;;;;0.40;0.20;;;10.60;99.90;;;;;;5117583;28;20416;-59
2023/10/31 05:02:43;;;;;;;0.30;0.10;;;10.60;99.90;;;;;;5116019;28;20421;-59
2023/10/31 05:05:10;;;;;;;0.40;0.13;;;10.60;99.90;;;;;;5115579;28;20431;-59
2023/10/31 05:07:37;;;;;;;1.50;0.20;;;10.60;99.90;;;;;;5114339;28;20419;-60
2023/10/31 05:10:04;;;;;;;0.40;0.17;;;10.60;99.90;;;;;;5115066;28;20416;-60
2023/10/31 05:12:31;;;;;;;0.57;0.20;;;10.60;99.90;;;;;;5115300;28;20436;-60
2023/10/31 05:14:59;;;;;;;0.40;0.10;;;10.70;99.90;;;;;;5115435;28;20982;-59
2023/10/31 05:17:26;;;;;;;0.30;0.20;;;10.70;99.90;;;;;;5114411;28;20762;-59
2023/10/31 05:19:53;;;;;;;0.30;0.10;;;10.70;99.90;;;;;;5116343;28;20423;-60
2023/10/31 05:22:20;;;;;;;0.40;0.10;;;10.70;99.90;;;;;;5117023;28;20469;-59
2023/10/31 05:24:47;;;;;;;0.30;0.20;;;10.70;99.90;;;;;;5116102;28;20420;-59
2023/10/31 05:27:15;;;;;;;0.40;0.20;;;10.70;99.90;;;;;;5116313;28;20423;-59
2023/10/31 05:29:42;;;;;;;0.60;0.20;;;10.70;99.90;;;;;;5115684;28;20423;-59
2023/10/31 05:32:10;;;;;;;0.30;0.10;;;10.70;99.90;;;;;;5116131;28;20432;-59
2023/10/31 05:34:37;;;;;;;0.40;0.20;;;10.60;99.90;;;;;;5116252;28;20504;-59
2023/10/31 05:37:05;;;;;;;0.30;0.20;;;10.60;99.90;;;;;;5117041;28;20827;-59
2023/10/31 05:39:32;;;;;;;0.30;0.10;;;10.60;99.90;;;;;;5116525;28;21012;-59
2023/10/31 05:41:59;;;;;;;0.30;0.10;;;10.60;99.90;;;;;;5116741;28;20416;-58
2023/10/31 05:44:26;;;;;;;0.70;0.17;;;10.60;99.90;;;;;;5115459;28;20419;-59
2023/10/31 05:46:53;;;;;;;0.40;0.20;;;10.60;99.90;;;;;;5114374;28;20477;-60
2023/10/31 05:49:22;;;;;;;0.38;0.10;;;10.60;99.90;;;;;;5114978;28;20484;-61
2023/10/31 05:51:51;;;;;;;0.40;0.10;;;10.50;99.90;;;;;;5114406;28;20496;-60
2023/10/31 05:54:18;;;;;;;0.40;0.10;;;10.50;99.90;;;;;;5114601;28;20422;-60
2023/10/31 05:56:45;;;;;;;0.70;0.10;;;10.40;99.90;;;;;;5114190;28;20411;-59
2023/10/31 05:59:12;;;;;;;0.60;0.20;;;10.30;99.90;;;;;;5111436;28;20419;-60
2023/10/31 06:01:39;;;;;;;0.40;0.20;;;10.30;99.90;;;;;;5112820;27;20428;-60
2023/10/31 06:04:06;;;;;;;0.40;0.20;;;10.30;99.90;;;;;;5112730;28;20419;-59
2023/10/31 06:06:38;;;;;;;0.40;0.20;;;10.30;99.90;;;;;;5114246;28;20908;-59
2023/10/31 06:09:05;;;;;;;0.30;0.20;;;10.20;99.90;;;;;;5115021;28;20489;-59
2023/10/31 06:11:32;;;;;;;0.30;0.20;;;10.20;99.90;;;;;;5114812;28;20768;-59
2023/10/31 06:14:00;;;;;;;0.47;0.15;;;10.30;99.90;;;;;;5114515;28;20436;-60
2023/10/31 06:16:27;;;;;;;0.30;0.10;;;10.40;99.90;;;;;;5115093;28;20412;-59
2023/10/31 06:18:54;;;;;;;1.20;0.10;;;10.60;99.90;;;;;;5115560;28;20427;-59
2023/10/31 06:21:21;;;;;;;0.40;0.10;;;10.60;99.90;;;;;;5115175;28;20497;-59
2023/10/31 06:23:49;;;;;;;0.70;0.10;;;10.60;99.90;;;;;;5114677;28;20412;-59
2023/10/31 06:26:16;;;;;;;0.30;0.10;;;10.60;99.90;;;;;;5114434;28;20477;-59
2023/10/31 06:28:43;;;;;;;0.30;0.20;;;10.50;99.90;;;;;;5112148;28;20469;-60
2023/10/31 06:31:10;;;;;;;0.30;0.10;;;10.50;99.90;;;;;;5112529;28;20415;-59
2023/10/31 06:33:37;;;;;;;0.70;0.10;;;10.50;99.90;;;;;;5112795;28;20505;-59
2023/10/31 06:36:04;;;;;;;0.50;0.10;;;10.40;99.90;;;;;;5112849;28;20420;-59
2023/10/31 06:38:31;;;;;;;0.40;0.20;;;10.40;99.90;;;;;;5112857;28;20469;-59
2023/10/31 06:41:00;;;;;;;0.40;0.20;;;10.40;99.90;;;;;;5112906;28;20477;-59
2023/10/31 06:43:27;;;;;;;0.40;0.20;;;10.40;99.90;;;;;;5111335;28;20465;-60
2023/10/31 06:45:54;;;;;;;0.40;0.20;;;10.30;99.90;;;;;;5111579;28;20428;-59
2023/10/31 06:48:21;;;;;;;0.40;0.10;;;10.30;99.90;;;;;;5112828;28;20420;-59
2023/10/31 06:50:48;;;;;;;0.85;0.20;;;10.30;99.90;;;;;;5112690;28;20788;-59
2023/10/31 06:53:15;;;;;;;1.00;0.20;;;10.50;99.90;;;;;;5113442;28;20432;-59
2023/10/31 06:55:42;;;;;;;0.40;0.20;;;10.70;99.90;;;;;;5114533;28;20428;-59
2023/10/31 06:58:10;;;;;;;0.40;0.20;;;10.70;99.90;;;;;;5113576;28;20906;-59
2023/10/31 07:00:38;;;;;;;0.30;0.10;;;10.60;99.90;;;;;;5127034;27;20438;-59
2023/10/31 07:03:09;;;;;;;0.55;0.20;;;10.60;99.90;;;;;;5133923;27;20410;-59
2023/10/31 07:05:36;;;;;;;0.60;0.20;;;10.60;99.90;;;;;;5132513;27;20582;-59
2023/10/31 07:08:03;;;;;;;0.30;0.10;;;10.60;99.90;;;;;;5131339;27;20548;-59
2023/10/31 07:10:30;;;;;;;0.43;0.17;;;10.60;99.90;;;;;;5132062;27;20908;-59
2023/10/31 07:12:58;;;;;;;0.40;0.20;;;10.70;99.90;;;;;;5132830;27;20517;-59
2023/10/31 07:15:27;;;;;;;0.50;0.10;;;10.60;99.90;;;;;;5130763;27;20437;-59
2023/10/31 07:17:54;;;;;;;0.70;0.20;;;10.60;99.90;;;;;;5132117;27;20469;-59
2023/10/31 07:20:20;;;;;;;0.70;0.20;;;10.60;99.90;;;;;;5132358;27;20474;-59
2023/10/31 07:22:47;;;;;;;0.30;0.10;;;10.60;99.90;;;;;;5133889;27;20410;-59
2023/10/31 07:25:14;;;;;;;0.35;0.10;;;10.60;99.90;;;;;;5131242;27;20418;-59
2023/10/31 07:27:41;;;;;;;0.40;0.20;;;10.50;99.90;;;;;;5133176;27;20425;-59
2023/10/31 07:30:09;;;;;;;0.40;0.20;;;10.50;99.90;;;;;;5132529;27;20860;-60
2023/10/31 07:32:37;;;;;;;0.80;0.20;;;10.50;99.90;;;;;;5133391;27;20418;-59
2023/10/31 07:35:05;;;;;;;1.65;0.30;;;10.50;99.90;;;;;;5132569;27;20426;-59
2023/10/31 07:37:32;;;;;;;0.40;0.20;;;10.60;99.90;;;;;;5132420;27;20426;-59
2023/10/31 07:39:59;;;;;;;0.52;0.20;;;10.60;99.90;;;;;;5130918;27;20491;-59
2023/10/31 07:42:26;;;;;;;0.77;0.20;;;10.80;99.90;;;;;;5130789;27;20758;-60
2023/10/31 07:44:53;;;;;;;0.70;0.20;;;11.00;99.90;;;;;;5129557;27;20430;-59
2023/10/31 07:47:20;;;;;;;0.40;0.10;;;11.10;99.90;;;;;;5132231;28;20841;-59
2023/10/31 07:49:48;;;;;;;1.60;0.20;;;11.10;99.90;;;;;;5130427;28;20491;-59
2023/10/31 07:52:15;;;;;;;0.30;0.10;;;11.00;99.90;;;;;;5131830;27;20486;-59
2023/10/31 07:54:42;;;;;;;0.50;0.20;;;11.00;99.90;;;;;;5132864;27;20431;-59
2023/10/31 07:57:10;;;;;;;0.50;0.20;;;10.90;99.90;;;;;;5131935;27;20475;-59
2023/10/31 07:59:37;;;;;;;0.50;0.10;;;11.00;99.90;;;;;;5128288;28;20430;-59
2023/10/31 08:02:05;;;;;;;0.30;0.20;;;11.10;99.90;;;;;;5132124;27;20426;-59
2023/10/31 08:04:32;;;;;;;0.30;0.10;;;11.10;99.90;;;;;;5132935;28;20430;-58
2023/10/31 08:07:01;;;;;;;0.30;0.10;;;11.00;99.90;;;;;;5133446;27;20721;-58
2023/10/31 08:09:28;;;;;;;0.30;0.10;;;11.00;99.90;;;;;;5131676;27;20422;-59
2023/10/31 08:11:55;;;;;;;1.00;0.20;;;11.00;99.90;;;;;;5130840;28;20411;-58
2023/10/31 08:14:23;;;;;;;0.40;0.20;;;11.10;99.90;;;;;;5133325;27;20454;-59
2023/10/31 08:16:50;;;;;;;0.47;0.20;;;11.20;99.90;;;;;;5131509;27;20591;-59
2023/10/31 08:19:16;;;;;;;1.00;0.20;;;11.30;99.90;;;;;;5128527;28;20747;-59
2023/10/31 08:21:44;;;;;;;0.90;0.20;;;11.50;99.90;;;;;;5130950;27;20458;-59
2023/10/31 08:24:13;;;;;;;0.40;0.20;;;11.50;99.90;;;;;;5132900;27;20897;-59
2023/10/31 08:26:40;;;;;;;0.30;0.10;;;11.80;99.90;;;;;;5133354;27;20423;-59
2023/10/31 08:29:07;;;;;;;0.40;0.20;;;11.80;99.90;;;;;;5134135;27;20422;-59
2023/10/31 08:31:34;;;;;;;0.50;0.20;;;11.90;99.90;;;;;;5133193;27;20479;-59
2023/10/31 08:34:01;;;;;;;0.70;0.20;;;11.90;99.90;;;;;;5132674;27;20578;-59
2023/10/31 08:36:28;;;;;;;0.40;0.20;;;11.90;99.90;;;;;;5132744;27;20434;-58
2023/10/31 08:38:55;;;;;;;0.40;0.20;;;11.90;99.90;;;;;;5131007;28;20415;-58
2023/10/31 08:41:24;;;;;;;0.40;0.20;;;11.90;99.90;;;;;;5130385;27;20431;-57
2023/10/31 08:43:51;;;;;;;0.40;0.13;;;11.90;99.90;;;;;;5133173;27;20414;-57
2023/10/31 08:46:18;;;;;;;0.40;0.10;;;12.00;99.90;;;;;;5130934;27;20483;-58
2023/10/31 08:48:45;;;;;;;0.70;0.20;;;11.90;98.10;;;;;;5130447;27;20459;-57
2023/10/31 08:51:12;;;;;;;0.30;0.10;;;12.00;99.90;;;;;;5130341;27;20425;-56
2023/10/31 08:53:38;;;;;;;1.00;0.20;;;12.10;99.90;;;;;;5133732;27;20721;-58
2023/10/31 08:56:06;;;;;;;1.30;0.20;;;12.20;95.20;;;;;;5135718;27;20479;-58
2023/10/31 08:58:34;;;;;;;1.70;0.20;;;12.30;93.70;;;;;;5131942;27;20646;-57
2023/10/31 09:01:01;;;;;;;0.47;0.20;;;12.30;73.20;;;;;;5133189;27;20422;-57
2023/10/31 09:03:28;;;;;;;1.10;0.20;;;12.50;96.70;;;;;;5133115;27;20438;-56
2023/10/31 09:05:55;;;;;;;1.00;0.20;;;12.70;70.80;;;;;;5132566;27;20430;-56
2023/10/31 09:08:22;;;;;;;0.40;0.20;;;12.60;50.80;;;;;;5133985;27;20410;-56
2023/10/31 09:10:49;;;;;;;0.50;0.20;;;12.60;57.80;;;;;;5133241;27;20435;-56
2023/10/31 09:13:16;;;;;;;0.60;0.10;;;12.70;57.20;;;;;;5134685;27;20456;-56
2023/10/31 09:15:45;;;;;;;0.45;0.20;;;12.80;54.50;;;;;;5134302;27;20484;-57
2023/10/31 09:18:12;;;;;;;0.50;0.20;;;12.80;50.00;;;;;;5134794;27;20870;-57
2023/10/31 09:20:39;;;;;;;1.40;0.20;;;12.90;46.70;;;;;;5134396;27;20638;-55
2023/10/31 09:23:06;;;;;;;0.40;0.20;;;12.80;48.30;;;;;;5134365;27;20427;-57
2023/10/31 09:25:33;;;;;;;0.40;0.20;;;12.90;61.80;;;;;;5134007;27;20527;-57
2023/10/31 09:28:01;;;;;;;0.60;0.20;;;13.10;22.10;;;;;;5134200;27;20487;-56
2023/10/31 09:30:28;;;;;;;0.70;0.20;;;13.10;17.40;;;;;;5133393;27;20491;-56
2023/10/31 09:32:56;;;;;;;1.00;0.20;;;13.10;12.50;;;;;;5136783;27;20467;-56
2023/10/31 09:35:23;;;;;;;1.67;0.20;;;13.00;17.10;;;;;;5135986;27;20411;-54
2023/10/31 09:37:50;;;;;;;0.57;0.20;;;13.00;33.80;;;;;;5136554;27;20785;-52
2023/10/31 09:40:17;;;;;;;0.30;0.20;;;13.00;31.40;;;;;;5134544;27;20456;-54
2023/10/31 09:42:46;;;;;;;0.70;0.20;;;13.00;27.10;;;;;;5134264;27;20434;-55
2023/10/31 09:45:13;;;;;;;0.90;0.20;;;13.00;34.50;;;;;;5134663;27;20689;-56
2023/10/31 09:47:41;;;;;;;0.70;0.20;;;13.00;31.60;;;;;;5135790;27;20520;-54
2023/10/31 09:50:11;;;;;;;0.90;0.20;;;13.00;39.40;;;;;;5135027;27;20943;-55
2023/10/31 09:52:39;;;;;;;0.47;0.20;;;13.00;7.30;;;;;;5133448;27;20431;-56
2023/10/31 09:55:07;;;;;;;0.47;0.20;;;13.00;22.50;;;;;;5134923;27;20490;-56
2023/10/31 09:57:34;;;;;;;0.70;0.30;;;13.10;37.30;;;;;;5135714;27;20434;-58
2023/10/31 10:00:01;;;;;;;0.90;0.20;;;13.20;9.70;;;;;;5135278;27;20430;-58
2023/10/31 10:02:28;;;;;;;0.55;0.22;;;13.20;2.90;;;;;;5134403;27;20475;-57
2023/10/31 10:04:55;;;;;;;0.45;0.20;;;13.30;29.50;;;;;;5132176;27;20841;-57
2023/10/31 10:07:24;;;;;;;0.40;0.20;;;13.40;10.80;;;;;;5132824;27;20774;-59
2023/10/31 10:09:51;;;;;;;0.40;0.20;;;13.50;1.00;;;;;;5132307;27;20426;-58
2023/10/31 10:12:18;;;;;;;0.40;0.20;;;13.60;1.00;;;;;;5133511;27;20448;-58
2023/10/31 10:14:47;;;;;;;0.50;0.20;;;13.60;1.00;;;;;;5131919;27;20518;-58
2023/10/31 10:17:22;;;;;;;0.40;0.20;;;13.60;1.00;;;;;;5133714;27;20514;-59
2023/10/31 10:19:49;;;;;;;1.17;0.20;;;13.60;7.10;;;;;;5134180;27;20422;-58
2023/10/31 10:22:20;;;;;;;1.40;0.20;;;13.60;1.00;;;;;;5133894;27;20516;-58
2023/10/31 10:24:49;;;;;;;0.80;0.30;;;13.70;5.40;;;;;;5133688;27;20445;-58
2023/10/31 10:27:16;;;;;;;0.70;0.30;;;13.70;2.70;;;;;;5137736;27;20427;-58
2023/10/31 10:29:45;;;;;;;1.40;0.50;;;13.70;1.00;;;;;;5129142;27;20482;-58
2023/10/31 10:32:12;;;;;;;0.50;0.30;;;13.80;18.70;;;;;;5132748;27;20439;-58
2023/10/31 10:34:39;;;;;;;1.20;0.30;;;13.90;1.60;;;;;;5134770;27;20430;-58
2023/10/31 10:37:07;;;;;;;2.13;0.30;;;13.90;4.60;;;;;;5132624;27;20418;-57
2023/10/31 10:39:36;;;;;;;1.48;0.20;;;14.00;1.00;;;;;;5131694;27;20414;-57
2023/10/31 10:42:11;;;;;;;0.40;0.20;;;13.90;1.00;;;;;;5131036;27;20418;-56
2023/10/31 10:44:40;;;;;;;0.70;0.20;;;13.70;1.00;;;;;;5131251;27;20410;-55
2023/10/31 10:47:08;;;;;;;1.00;0.20;;;13.70;1.00;;;;;;5111857;28;20468;-56
2023/10/31 10:49:36;;;;;;;1.80;0.30;;;13.70;1.00;;;;;;5123244;27;20545;-55
2023/10/31 10:52:18;;;;;;;1.20;0.30;;;13.60;1.00;;;;;;5129993;27;20513;-54
2023/10/31 10:54:50;;;;;;;1.00;0.30;;;13.70;4.20;;;;;;5123995;27;20436;-55
2023/10/31 10:57:25;;;;;;;0.60;0.20;;;13.70;1.00;;;;;;5129585;27;20415;-55
2023/10/31 10:59:56;;;;;;;0.50;0.20;;;13.60;1.00;;;;;;5132682;27;20414;-55
2023/10/31 11:02:24;;;;;;;0.40;0.20;;;13.70;15.40;;;;;;5132110;27;20501;-56
2023/10/31 11:04:53;;;;;;;0.70;0.30;;;13.70;26.20;;;;;;5132688;27;20501;-55
2023/10/31 11:07:22;;;;;;;0.50;0.20;;;13.80;5.90;;;;;;5132641;27;20422;-55
2023/10/31 11:09:50;;;;;;;1.25;0.30;;;13.80;1.00;;;;;;5131926;27;20422;-56
2023/10/31 11:12:19;;;;;;;0.90;0.20;;;13.90;8.90;;;;;;5132961;27;20425;-57
2023/10/31 11:14:47;;;;;;;0.57;0.30;;;13.80;1.00;;;;;;5131730;27;20426;-56
2023/10/31 11:17:24;;;;;;;0.60;0.30;;;13.80;1.00;;;;;;5132041;27;20415;-56
2023/10/31 11:19:53;;;;;;;0.40;0.10;;;14.00;1.00;;;;;;5132583;27;20418;-57
2023/10/31 11:22:21;;;;;;;1.08;0.20;;;14.10;1.00;;;;;;5132907;27;20517;-55
2023/10/31 11:24:50;;;;;;;0.40;0.20;;;14.00;1.00;;;;;;5134192;27;20411;-55
2023/10/31 11:27:19;;;;;;;0.40;0.20;;;13.90;1.00;;;;;;5133158;27;20423;-56
2023/10/31 11:29:46;;;;;;;0.40;0.20;;;13.80;1.00;;;;;;5131140;27;20826;-55
2023/10/31 11:32:15;;;;;;;0.50;0.20;;;13.70;4.40;;;;;;5129736;27;20430;-56
2023/10/31 11:34:43;;;;;;;0.70;0.20;;;13.80;21.50;;;;;;5131736;27;20433;-55
2023/10/31 11:37:26;;;;;;;0.88;0.20;;;13.70;4.40;;;;;;5131313;27;20418;-56
2023/10/31 11:40:20;;;;;;;0.40;0.20;;;13.70;10.60;;;;;;5127875;27;20421;-55
2023/10/31 11:42:54;;;;;;;0.40;0.20;;;13.60;10.50;;;;;;5124460;27;20495;-57
2023/10/31 11:45:29;;;;;;;1.00;0.20;;;13.50;15.80;;;;;;5127345;27;20433;-58
2023/10/31 11:47:57;;;;;;;0.70;0.30;;;13.50;15.80;;;;;;5129889;27;20434;-56
2023/10/31 11:50:24;;;;;;;0.75;0.20;;;13.40;19.70;;;;;;5130108;27;20537;-56
2023/10/31 11:53:06;;;;;;;1.20;0.23;;;13.40;22.60;;;;;;5133184;27;20479;-57
2023/10/31 11:55:35;;;;;;;0.77;0.20;;;13.40;28.00;;;;;;5117482;28;20868;-55
2023/10/31 11:58:19;;;;;;;0.60;0.20;;;13.40;20.10;;;;;;5132429;27;20434;-55
2023/10/31 12:00:49;;;;;;;0.73;0.30;;;13.50;18.30;;;;;;5128508;27;20439;-54
2023/10/31 12:03:17;;;;;;;1.10;0.30;;;13.70;27.20;;;;;;5132834;27;20853;-57
2023/10/31 12:05:53;;;;;;;1.40;0.20;;;13.80;4.10;;;;;;5129423;27;20465;-56
2023/10/31 12:08:29;;;;;;;0.30;0.20;;;13.90;6.80;;;;;;5119772;28;20426;-57
2023/10/31 12:11:05;;;;;;;0.38;0.20;;;14.10;1.00;;;;;;5133614;27;20857;-57
2023/10/31 12:13:34;;;;;;;0.30;0.10;;;14.00;1.00;;;;;;5131624;27;20433;-54
2023/10/31 12:16:01;;;;;;;0.40;0.20;;;14.00;1.00;;;;;;5109139;28;20793;-57
2023/10/31 12:18:29;;;;;;;0.40;0.20;;;14.00;5.50;;;;;;5115121;28;20525;-55
2023/10/31 12:20:56;;;;;;;0.30;0.10;;;14.10;1.00;;;;;;5131105;27;20430;-56
2023/10/31 12:23:23;;;;;;;0.50;0.20;;;14.20;1.00;;;;;;5131378;27;20430;-58
2023/10/31 12:25:51;;;;;;;0.40;0.20;;;14.20;5.30;;;;;;5130502;27;20422;-57
2023/10/31 12:28:18;;;;;;;0.60;0.20;;;14.00;16.40;;;;;;5131740;27;20434;-57
2023/10/31 12:30:47;;;;;;;0.50;0.20;;;13.80;25.40;;;;;;5133573;27;20453;-58
2023/10/31 12:33:15;;;;;;;0.60;0.20;;;13.70;69.00;;;;;;5132332;27;20448;-56
2023/10/31 12:35:43;;;;;;;0.60;0.20;;;13.60;82.80;;;;;;5133241;27;20491;-57
2023/10/31 12:38:12;;;;;;;0.40;0.20;;;13.50;99.90;;;;;;5135150;27;20811;-57
2023/10/31 12:40:40;;;;;;;0.40;0.20;;;13.40;99.90;;;;;;5134587;27;20752;-58
2023/10/31 12:43:08;;;;;;;0.63;0.20;;;13.40;99.90;;;;;;5133535;27;20434;-58
2023/10/31 12:45:35;;;;;;;1.30;0.20;;;13.40;99.90;;;;;;5131270;27;20434;-59
2023/10/31 12:48:04;;;;;;;0.50;0.20;;;13.30;99.90;;;;;;5135271;27;20414;-59
2023/10/31 12:50:33;;;;;;;1.05;0.30;;;13.20;99.90;;;;;;5133551;27;20727;-59
2023/10/31 12:53:00;;;;;;;0.40;0.20;;;13.30;99.90;;;;;;5134703;27;20538;-59
2023/10/31 12:55:28;;;;;;;0.57;0.17;;;13.20;99.90;;;;;;5133152;27;20459;-60
2023/10/31 12:57:56;;;;;;;0.50;0.20;;;13.20;99.90;;;;;;5135570;27;20907;-59